createdAt,value
2023-01-30T00:00:35.488Z,1004.01
2023-01-30T00:01:35.462Z,1004.10
2023-01-30T00:02:35.475Z,1004.04
2023-01-30T00:03:35.617Z,1004.10
2023-01-30T00:04:35.473Z,1004.06
2023-01-30T00:05:35.410Z,1003.97
2023-01-30T00:06:35.422Z,1003.99
2023-01-30T00:07:35.401Z,1004.12
2023-01-30T00:08:36.403Z,1004.14
2023-01-30T00:09:35.637Z,1004.14
2023-01-30T00:10:36.370Z,1004.15
2023-01-30T00:11:35.366Z,1004.01
2023-01-30T00:12:35.368Z,1004.02
2023-01-30T00:13:35.352Z,1004.18
2023-01-30T00:14:35.314Z,1004.19
2023-01-30T00:15:35.331Z,1004.11
2023-01-30T00:16:36.396Z,1004.22
2023-01-30T00:17:35.316Z,1004.16
2023-01-30T00:18:35.300Z,1004.12
2023-01-30T00:19:36.261Z,1004.13
2023-01-30T00:20:35.253Z,1004.08
2023-01-30T00:21:35.278Z,1004.09
2023-01-30T00:22:35.235Z,1004.05
2023-01-30T00:23:35.241Z,1004.07
2023-01-30T00:24:35.310Z,1004.12
2023-01-30T00:25:35.378Z,1004.05
2023-01-30T00:26:36.243Z,1004.09
2023-01-30T00:27:36.203Z,1003.99
2023-01-30T00:28:35.189Z,1003.92
2023-01-30T00:29:35.165Z,1003.90
2023-01-30T00:30:35.203Z,1003.95
2023-01-30T00:31:35.181Z,1003.89
2023-01-30T00:32:36.126Z,1003.79
2023-01-30T00:33:35.134Z,1003.83
2023-01-30T00:34:35.099Z,1003.65
2023-01-30T00:35:35.115Z,1003.68
2023-01-30T00:36:35.117Z,1003.72
2023-01-30T00:37:36.077Z,1003.67
2023-01-30T00:38:36.064Z,1003.71
2023-01-30T00:39:35.074Z,1003.58
2023-01-30T00:40:35.055Z,1003.59
2023-01-30T00:41:35.038Z,1003.52
2023-01-30T00:42:35.048Z,1003.51
2023-01-30T00:43:34.998Z,1003.52
2023-01-30T00:44:35.018Z,1003.59
2023-01-30T00:45:35.008Z,1003.50
2023-01-30T00:46:35.059Z,1003.42
2023-01-30T00:47:34.975Z,1003.44
2023-01-30T00:48:34.976Z,1003.35
2023-01-30T00:49:34.961Z,1003.39
2023-01-30T00:50:34.923Z,1003.25
2023-01-30T00:51:35.955Z,1003.15
2023-01-30T00:52:34.938Z,1003.16
2023-01-30T00:53:34.922Z,1003.23
2023-01-30T00:54:35.896Z,1003.17
2023-01-30T00:55:34.890Z,1003.15
2023-01-30T00:56:35.047Z,1003.08
2023-01-30T00:57:34.874Z,1003.02
2023-01-30T00:58:35.854Z,1003.02
2023-01-30T00:59:34.861Z,1003.05
2023-01-30T01:00:34.827Z,1003.01
2023-01-30T01:01:34.863Z,1002.98
2023-01-30T01:02:35.839Z,1002.95
2023-01-30T01:03:35.822Z,1002.93
2023-01-30T01:04:34.789Z,1002.88
2023-01-30T01:05:35.769Z,1002.82
2023-01-30T01:06:35.781Z,1002.82
2023-01-30T01:07:35.749Z,1002.77
2023-01-30T01:08:34.754Z,1002.74
2023-01-30T01:09:34.732Z,1002.72
2023-01-30T01:10:34.758Z,1002.67
2023-01-30T01:11:34.751Z,1002.69
2023-01-30T01:12:34.728Z,1002.63
2023-01-30T01:13:34.701Z,1002.51
2023-01-30T01:14:35.691Z,1002.52
2023-01-30T01:15:34.677Z,1002.49
2023-01-30T01:16:34.902Z,1002.39
2023-01-30T01:17:34.669Z,1002.41
2023-01-30T01:18:35.634Z,1002.39
2023-01-30T01:19:34.627Z,1002.41
2023-01-30T01:20:34.601Z,1002.33
2023-01-30T01:21:34.591Z,1002.17
2023-01-30T01:22:35.641Z,1002.21
2023-01-30T01:23:34.587Z,1002.16
2023-01-30T01:24:34.572Z,1002.14
2023-01-30T01:25:34.585Z,1002.04
2023-01-30T01:26:35.578Z,1001.93
2023-01-30T01:27:34.588Z,1001.95
2023-01-30T01:28:34.554Z,1002.05
2023-01-30T01:29:35.529Z,1002.06
2023-01-30T01:30:34.501Z,1002.03
2023-01-30T01:31:35.584Z,1002.06
2023-01-30T01:32:34.490Z,1002.06
2023-01-30T01:33:35.536Z,1002.12
2023-01-30T01:34:34.464Z,1002.11
2023-01-30T01:35:34.477Z,1002.21
2023-01-30T01:36:53.979Z,1002.09
2023-01-30T01:37:35.453Z,1002.07
2023-01-30T01:38:34.435Z,1002.03
2023-01-30T01:39:34.435Z,1001.92
2023-01-30T01:40:35.426Z,1001.80
2023-01-30T01:41:34.411Z,1001.60
2023-01-30T01:42:34.381Z,1001.55
2023-01-30T01:43:34.371Z,1001.39
2023-01-30T01:44:34.365Z,1001.43
2023-01-30T01:45:34.465Z,1001.47
2023-01-30T01:46:34.398Z,1001.53
2023-01-30T01:47:34.340Z,1001.39
2023-01-30T01:48:34.303Z,1001.44
2023-01-30T01:49:34.306Z,1001.43
2023-01-30T01:50:34.326Z,1001.40
2023-01-30T01:51:34.293Z,1001.32
2023-01-30T01:52:34.303Z,1001.47
2023-01-30T01:53:34.282Z,1001.51
2023-01-30T01:54:34.282Z,1001.68
2023-01-30T01:55:34.224Z,1001.64
2023-01-30T01:56:34.237Z,1001.63
2023-01-30T01:57:34.267Z,1001.74
2023-01-30T01:58:35.204Z,1001.73
2023-01-30T01:59:35.213Z,1001.80
2023-01-30T02:00:34.196Z,1001.86
2023-01-30T02:01:34.159Z,1001.78
2023-01-30T02:02:34.197Z,1001.93
2023-01-30T02:03:34.166Z,1001.86
2023-01-30T02:04:34.170Z,1001.87
2023-01-30T02:05:34.156Z,1001.78
2023-01-30T02:06:34.151Z,1001.82
2023-01-30T02:07:35.104Z,1001.86
2023-01-30T02:08:34.115Z,1001.84
2023-01-30T02:09:34.101Z,1001.76
2023-01-30T02:10:34.078Z,1001.77
2023-01-30T02:11:34.138Z,1001.74
2023-01-30T02:12:34.096Z,1001.74
2023-01-30T02:13:34.045Z,1001.61
2023-01-30T02:14:34.028Z,1001.68
2023-01-30T02:15:35.034Z,1001.66
2023-01-30T02:16:34.026Z,1001.66
2023-01-30T02:17:34.045Z,1001.65
2023-01-30T02:18:34.041Z,1001.53
2023-01-30T02:19:34.978Z,1001.55
2023-01-30T02:20:33.974Z,1001.47
2023-01-30T02:21:34.064Z,1001.33
2023-01-30T02:22:34.957Z,1001.41
2023-01-30T02:23:33.968Z,1001.38
2023-01-30T02:24:33.973Z,1001.28
2023-01-30T02:25:33.918Z,1001.20
2023-01-30T02:26:33.959Z,1001.20
2023-01-30T02:27:33.918Z,1001.01
2023-01-30T02:28:33.892Z,1001.01
2023-01-30T02:29:33.880Z,1000.99
2023-01-30T02:30:33.907Z,1000.92
2023-01-30T02:31:34.023Z,1000.82
2023-01-30T02:32:33.907Z,1001.01
2023-01-30T02:33:33.833Z,1000.92
2023-01-30T02:34:33.846Z,1000.98
2023-01-30T02:35:33.807Z,1000.86
2023-01-30T02:36:33.808Z,1000.84
2023-01-30T02:37:33.798Z,1000.90
2023-01-30T02:38:33.782Z,1000.77
2023-01-30T02:39:33.778Z,1000.65
2023-01-30T02:40:34.773Z,1000.68
2023-01-30T02:41:33.745Z,1000.60
2023-01-30T02:42:34.750Z,1000.55
2023-01-30T02:43:34.743Z,1000.55
2023-01-30T02:44:33.716Z,1000.57
2023-01-30T02:45:33.720Z,1000.43
2023-01-30T02:46:34.697Z,1000.48
2023-01-30T02:47:34.706Z,1000.41
2023-01-30T02:48:33.671Z,1000.29
2023-01-30T02:49:33.663Z,1000.21
2023-01-30T02:50:33.645Z,1000.19
2023-01-30T02:51:33.636Z,1000.24
2023-01-30T02:52:33.650Z,1000.14
2023-01-30T02:53:33.631Z,1000.14
2023-01-30T02:54:33.595Z,1000.19
2023-01-30T02:55:33.612Z,1000.26
2023-01-30T02:56:34.587Z,1000.30
2023-01-30T02:57:33.639Z,1000.23
2023-01-30T02:58:33.572Z,1000.31
2023-01-30T02:59:33.554Z,1000.26
2023-01-30T03:00:34.543Z,1000.18
2023-01-30T03:01:33.603Z,1000.22
2023-01-30T03:02:33.590Z,1000.23
2023-01-30T03:03:33.501Z,1000.22
2023-01-30T03:04:33.520Z,1000.21
2023-01-30T03:05:33.479Z,1000.15
2023-01-30T03:06:33.470Z,1000.17
2023-01-30T03:07:34.471Z,1000.11
2023-01-30T03:08:33.466Z,1000.11
2023-01-30T03:09:33.509Z,1000.22
2023-01-30T03:10:33.458Z,1000.26
2023-01-30T03:11:33.411Z,1000.21
2023-01-30T03:12:33.400Z,1000.17
2023-01-30T03:13:33.408Z,1000.11
2023-01-30T03:14:34.379Z,1000.08
2023-01-30T03:15:33.379Z,1000.03
2023-01-30T03:16:33.403Z,1000.03
2023-01-30T03:17:33.348Z,1000.01
2023-01-30T03:18:33.343Z,1000.08
2023-01-30T03:19:33.358Z,1000.12
2023-01-30T03:20:34.320Z,1000.11
2023-01-30T03:21:34.293Z,1000.13
2023-01-30T03:22:33.297Z,1000.11
2023-01-30T03:23:33.271Z,1000.06
2023-01-30T03:24:33.283Z,999.99
2023-01-30T03:25:33.264Z,999.88
2023-01-30T03:26:33.312Z,999.83
2023-01-30T03:27:33.269Z,999.78
2023-01-30T03:28:34.227Z,999.78
2023-01-30T03:29:33.223Z,999.77
2023-01-30T03:30:33.225Z,999.89
2023-01-30T03:31:33.409Z,999.80
2023-01-30T03:32:33.188Z,999.83
2023-01-30T03:33:33.195Z,999.86
2023-01-30T03:34:33.179Z,999.83
2023-01-30T03:35:33.205Z,999.86
2023-01-30T03:36:33.137Z,999.86
2023-01-30T03:37:33.167Z,999.82
2023-01-30T03:38:33.124Z,999.80
2023-01-30T03:39:33.126Z,999.76
2023-01-30T03:40:33.109Z,999.80
2023-01-30T03:41:33.080Z,999.83
2023-01-30T03:42:33.074Z,999.86
2023-01-30T03:43:33.105Z,999.92
2023-01-30T03:44:33.060Z,999.89
2023-01-30T03:45:33.094Z,999.85
2023-01-30T03:46:33.016Z,999.82
2023-01-30T03:47:33.025Z,999.85
2023-01-30T03:48:33.014Z,999.86
2023-01-30T03:49:33.039Z,999.77
2023-01-30T03:50:34.002Z,999.69
2023-01-30T03:51:33.982Z,999.70
2023-01-30T03:52:32.981Z,999.64
2023-01-30T03:53:32.970Z,999.56
2023-01-30T03:54:32.949Z,999.46
2023-01-30T03:55:33.948Z,999.44
2023-01-30T03:56:32.950Z,999.39
2023-01-30T03:57:33.910Z,999.38
2023-01-30T03:58:32.923Z,999.31
2023-01-30T03:59:32.916Z,999.43
2023-01-30T04:00:32.883Z,999.32
2023-01-30T04:01:32.965Z,999.24
2023-01-30T04:02:32.941Z,999.37
2023-01-30T04:03:32.882Z,999.22
2023-01-30T04:04:32.828Z,999.17
2023-01-30T04:05:33.856Z,999.12
2023-01-30T04:06:33.192Z,999.17
2023-01-30T04:07:32.813Z,999.08
2023-01-30T04:08:33.812Z,999.11
2023-01-30T04:09:32.794Z,999.07
2023-01-30T04:10:32.755Z,998.99
2023-01-30T04:11:32.805Z,998.99
2023-01-30T04:12:32.739Z,999.03
2023-01-30T04:13:32.770Z,998.95
2023-01-30T04:14:32.740Z,999.01
2023-01-30T04:15:32.710Z,998.86
2023-01-30T04:16:32.826Z,998.81
2023-01-30T04:17:32.678Z,998.92
2023-01-30T04:18:32.703Z,998.81
2023-01-30T04:19:32.698Z,998.90
2023-01-30T04:20:32.659Z,998.83
2023-01-30T04:21:32.664Z,998.87
2023-01-30T04:22:33.632Z,998.93
2023-01-30T04:23:32.626Z,998.87
2023-01-30T04:24:32.625Z,998.85
2023-01-30T04:25:32.653Z,998.80
2023-01-30T04:26:33.681Z,998.78
2023-01-30T04:27:33.583Z,998.81
2023-01-30T04:28:32.618Z,998.74
2023-01-30T04:29:33.559Z,998.70
2023-01-30T04:30:33.554Z,998.63
2023-01-30T04:31:32.629Z,998.77
2023-01-30T04:32:33.536Z,998.82
2023-01-30T04:33:32.547Z,998.86
2023-01-30T04:34:32.611Z,998.79
2023-01-30T04:35:40.190Z,998.68
2023-01-30T04:36:32.499Z,998.68
2023-01-30T04:37:32.468Z,998.73
2023-01-30T04:38:32.455Z,998.74
2023-01-30T04:39:32.471Z,998.73
2023-01-30T04:40:33.449Z,998.78
2023-01-30T04:41:32.441Z,998.89
2023-01-30T04:42:32.424Z,998.86
2023-01-30T04:43:32.432Z,998.78
2023-01-30T04:44:32.410Z,998.77
2023-01-30T04:45:33.388Z,998.78
2023-01-30T04:46:32.388Z,998.80
2023-01-30T04:47:32.396Z,998.75
2023-01-30T04:48:32.357Z,998.71
2023-01-30T04:49:32.379Z,998.72
2023-01-30T04:50:33.348Z,998.68
2023-01-30T04:51:32.308Z,998.49
2023-01-30T04:52:32.336Z,998.49
2023-01-30T04:53:32.303Z,998.42
2023-01-30T04:54:32.303Z,998.46
2023-01-30T04:55:33.282Z,998.47
2023-01-30T04:56:33.269Z,998.37
2023-01-30T04:57:32.261Z,998.36
2023-01-30T04:58:32.309Z,998.36
2023-01-30T04:59:33.271Z,998.35
2023-01-30T05:00:32.248Z,998.24
2023-01-30T05:01:32.213Z,998.16
2023-01-30T05:02:33.186Z,998.09
2023-01-30T05:03:33.207Z,998.08
2023-01-30T05:04:32.223Z,997.92
2023-01-30T05:05:32.173Z,998.01
2023-01-30T05:06:32.185Z,998.02
2023-01-30T05:07:32.143Z,998.02
2023-01-30T05:08:32.204Z,997.97
2023-01-30T05:09:32.132Z,997.98
2023-01-30T05:10:32.118Z,998.06
2023-01-30T05:11:32.104Z,997.92
2023-01-30T05:12:32.101Z,997.96
2023-01-30T05:13:32.088Z,997.86
2023-01-30T05:14:32.068Z,997.77
2023-01-30T05:15:32.069Z,997.80
2023-01-30T05:16:32.059Z,997.80
2023-01-30T05:17:32.066Z,997.82
2023-01-30T05:18:33.033Z,997.78
2023-01-30T05:19:32.013Z,997.89
2023-01-30T05:20:33.029Z,997.77
2023-01-30T05:21:31.976Z,997.74
2023-01-30T05:22:32.031Z,997.76
2023-01-30T05:23:31.978Z,997.64
2023-01-30T05:24:31.958Z,997.59
2023-01-30T05:25:31.946Z,997.51
2023-01-30T05:26:31.985Z,997.44
2023-01-30T05:27:31.927Z,997.45
2023-01-30T05:28:31.934Z,997.53
2023-01-30T05:29:31.915Z,997.57
2023-01-30T05:30:31.949Z,997.57
2023-01-30T05:31:31.899Z,997.52
2023-01-30T05:32:31.863Z,997.56
2023-01-30T05:33:31.862Z,997.46
2023-01-30T05:34:32.879Z,997.54
2023-01-30T05:35:31.872Z,997.36
2023-01-30T05:36:31.837Z,997.33
2023-01-30T05:37:31.812Z,997.41
2023-01-30T05:38:31.821Z,997.33
2023-01-30T05:39:32.795Z,997.38
2023-01-30T05:40:32.832Z,997.37
2023-01-30T05:41:31.762Z,997.40
2023-01-30T05:42:31.748Z,997.36
2023-01-30T05:43:31.747Z,997.44
2023-01-30T05:44:32.748Z,997.43
2023-01-30T05:45:31.754Z,997.44
2023-01-30T05:46:31.759Z,997.33
2023-01-30T05:47:31.703Z,997.41
2023-01-30T05:48:31.706Z,997.54
2023-01-30T05:49:31.759Z,997.51
2023-01-30T05:50:31.681Z,997.50
2023-01-30T05:51:31.664Z,997.46
2023-01-30T05:52:31.695Z,997.44
2023-01-30T05:53:31.650Z,997.39
2023-01-30T05:54:31.628Z,997.45
2023-01-30T05:55:31.752Z,997.41
2023-01-30T05:56:31.598Z,997.35
2023-01-30T05:57:31.608Z,997.40
2023-01-30T05:58:31.626Z,997.36
2023-01-30T05:59:31.613Z,997.36
2023-01-30T06:00:31.561Z,997.44
2023-01-30T06:01:31.583Z,997.38
2023-01-30T06:02:31.584Z,997.39
2023-01-30T06:03:32.632Z,997.38
2023-01-30T06:04:31.538Z,997.44
2023-01-30T06:05:31.510Z,997.53
2023-01-30T06:06:31.501Z,997.49
2023-01-30T06:07:31.507Z,997.48
2023-01-30T06:08:31.499Z,997.45
2023-01-30T06:09:31.481Z,997.49
2023-01-30T06:10:31.486Z,997.35
2023-01-30T06:11:31.452Z,997.42
2023-01-30T06:12:31.427Z,997.36
2023-01-30T06:13:31.422Z,997.31
2023-01-30T06:14:31.457Z,997.36
2023-01-30T06:15:32.387Z,997.32
2023-01-30T06:16:31.521Z,997.39
2023-01-30T06:17:31.362Z,997.48
2023-01-30T06:18:31.385Z,997.43
2023-01-30T06:19:31.360Z,997.35
2023-01-30T06:20:32.358Z,997.32
2023-01-30T06:21:32.381Z,997.40
2023-01-30T06:22:32.316Z,997.28
2023-01-30T06:23:31.323Z,997.27
2023-01-30T06:24:31.328Z,997.41
2023-01-30T06:25:31.315Z,997.34
2023-01-30T06:26:31.322Z,997.40
2023-01-30T06:27:31.295Z,997.36
2023-01-30T06:28:31.282Z,997.39
2023-01-30T06:29:31.278Z,997.43
2023-01-30T06:30:31.330Z,997.41
2023-01-30T06:31:31.288Z,997.40
2023-01-30T06:32:32.241Z,997.37
2023-01-30T06:33:31.215Z,997.36
2023-01-30T06:34:31.232Z,997.30
2023-01-30T06:35:31.203Z,997.36
2023-01-30T06:36:31.223Z,997.31
2023-01-30T06:37:31.156Z,997.24
2023-01-30T06:38:31.203Z,997.29
2023-01-30T06:39:31.146Z,997.26
2023-01-30T06:40:31.151Z,997.35
2023-01-30T06:41:31.134Z,997.33
2023-01-30T06:42:31.111Z,997.35
2023-01-30T06:43:31.119Z,997.29
2023-01-30T06:44:32.108Z,997.21
2023-01-30T06:45:31.057Z,997.29
2023-01-30T06:46:32.136Z,997.28
2023-01-30T06:47:32.055Z,997.27
2023-01-30T06:48:32.029Z,997.28
2023-01-30T06:49:31.080Z,997.28
2023-01-30T06:50:31.049Z,997.39
2023-01-30T06:51:31.023Z,997.34
2023-01-30T06:52:30.981Z,997.32
2023-01-30T06:53:30.975Z,997.26
2023-01-30T06:54:31.012Z,997.27
2023-01-30T06:55:31.989Z,997.25
2023-01-30T06:56:31.983Z,997.20
2023-01-30T06:57:31.943Z,997.26
2023-01-30T06:58:30.951Z,997.21
2023-01-30T06:59:30.908Z,997.13
2023-01-30T07:00:31.044Z,997.16
2023-01-30T07:01:30.927Z,997.20
2023-01-30T07:02:30.895Z,997.17
2023-01-30T07:03:31.882Z,997.16
2023-01-30T07:04:31.919Z,997.24
2023-01-30T07:05:30.841Z,997.17
2023-01-30T07:06:30.851Z,997.17
2023-01-30T07:07:30.846Z,997.24
2023-01-30T07:08:30.843Z,997.22
2023-01-30T07:09:30.816Z,997.23
2023-01-30T07:10:30.792Z,997.12
2023-01-30T07:11:30.859Z,997.19
2023-01-30T07:12:30.827Z,997.14
2023-01-30T07:13:30.770Z,997.16
2023-01-30T07:14:30.771Z,997.13
2023-01-30T07:15:30.747Z,997.04
2023-01-30T07:16:30.836Z,997.15
2023-01-30T07:17:30.724Z,997.14
2023-01-30T07:18:30.728Z,997.10
2023-01-30T07:19:30.706Z,997.04
2023-01-30T07:20:30.737Z,997.09
2023-01-30T07:21:30.682Z,997.14
2023-01-30T07:22:30.684Z,997.20
2023-01-30T07:23:30.666Z,997.11
2023-01-30T07:24:31.658Z,997.11
2023-01-30T07:25:30.650Z,997.24
2023-01-30T07:26:30.664Z,997.11
2023-01-30T07:27:30.620Z,997.20
2023-01-30T07:28:30.617Z,997.28
2023-01-30T07:29:30.617Z,997.26
2023-01-30T07:30:30.808Z,997.31
2023-01-30T07:31:30.635Z,997.30
2023-01-30T07:32:30.601Z,997.24
2023-01-30T07:33:30.533Z,997.28
2023-01-30T07:34:31.539Z,997.28
2023-01-30T07:35:30.536Z,997.28
2023-01-30T07:36:30.516Z,997.29
2023-01-30T07:37:30.503Z,997.28
2023-01-30T07:38:31.518Z,997.25
2023-01-30T07:39:30.519Z,997.27
2023-01-30T07:40:30.480Z,997.25
2023-01-30T07:41:30.471Z,997.27
2023-01-30T07:42:30.454Z,997.28
2023-01-30T07:43:30.441Z,997.30
2023-01-30T07:44:30.436Z,997.24
2023-01-30T07:45:30.462Z,997.27
2023-01-30T07:46:30.412Z,997.27
2023-01-30T07:47:30.403Z,997.17
2023-01-30T07:48:30.395Z,997.27
2023-01-30T07:49:30.366Z,997.32
2023-01-30T07:50:30.363Z,997.35
2023-01-30T07:51:30.371Z,997.27
2023-01-30T07:52:30.339Z,997.24
2023-01-30T07:53:30.329Z,997.30
2023-01-30T07:54:30.351Z,997.33
2023-01-30T07:55:30.292Z,997.34
2023-01-30T07:56:31.322Z,997.32
2023-01-30T07:57:31.297Z,997.34
2023-01-30T07:58:30.940Z,997.22
2023-01-30T07:59:30.253Z,997.24
2023-01-30T08:00:30.287Z,997.22
2023-01-30T08:01:30.267Z,997.28
2023-01-30T08:02:30.304Z,997.27
2023-01-30T08:03:30.354Z,997.35
2023-01-30T08:04:30.258Z,997.29
2023-01-30T08:05:31.209Z,997.22
2023-01-30T08:06:30.216Z,997.36
2023-01-30T08:07:30.204Z,997.23
2023-01-30T08:08:30.151Z,997.24
2023-01-30T08:09:31.180Z,997.17
2023-01-30T08:10:30.148Z,997.17
2023-01-30T08:11:30.125Z,997.13
2023-01-30T08:12:31.117Z,997.23
2023-01-30T08:13:30.139Z,997.13
2023-01-30T08:14:30.156Z,997.19
2023-01-30T08:15:30.146Z,997.14
2023-01-30T08:16:30.103Z,997.12
2023-01-30T08:17:30.091Z,997.04
2023-01-30T08:18:30.125Z,997.06
2023-01-30T08:19:30.053Z,997.09
2023-01-30T08:20:30.062Z,997.18
2023-01-30T08:21:30.039Z,997.20
2023-01-30T08:22:30.016Z,997.28
2023-01-30T08:23:30.022Z,997.23
2023-01-30T08:24:30.014Z,997.21
2023-01-30T08:25:29.984Z,997.20
2023-01-30T08:26:30.062Z,997.26
2023-01-30T08:27:29.961Z,997.26
2023-01-30T08:28:30.963Z,997.34
2023-01-30T08:29:29.955Z,997.23
2023-01-30T08:30:29.972Z,997.28
2023-01-30T08:31:29.963Z,997.25
2023-01-30T08:32:29.936Z,997.19
2023-01-30T08:33:29.918Z,997.29
2023-01-30T08:34:29.914Z,997.23
2023-01-30T08:35:29.891Z,997.21
2023-01-30T08:36:29.848Z,997.18
2023-01-30T08:37:29.860Z,997.13
2023-01-30T08:38:29.849Z,997.25
2023-01-30T08:39:29.832Z,997.27
2023-01-30T08:40:29.807Z,997.31
2023-01-30T08:41:30.832Z,997.26
2023-01-30T08:42:29.872Z,997.28
2023-01-30T08:43:29.828Z,997.27
2023-01-30T08:44:29.768Z,997.23
2023-01-30T08:45:30.769Z,997.23
2023-01-30T08:46:29.922Z,997.19
2023-01-30T08:47:29.746Z,997.21
2023-01-30T08:48:36.713Z,997.14
2023-01-30T08:49:30.751Z,997.16
2023-01-30T08:50:29.711Z,997.23
2023-01-30T08:51:29.727Z,997.17
2023-01-30T08:52:30.717Z,997.08
2023-01-30T08:53:29.684Z,997.11
2023-01-30T08:54:31.371Z,997.07
2023-01-30T08:55:30.673Z,997.10
2023-01-30T08:56:29.631Z,997.08
2023-01-30T08:57:29.632Z,996.97
2023-01-30T08:58:29.625Z,996.93
2023-01-30T08:59:29.631Z,997.01
2023-01-30T09:00:29.638Z,996.82
2023-01-30T09:01:29.705Z,997.09
2023-01-30T09:02:29.671Z,997.12
2023-01-30T09:03:29.565Z,997.13
2023-01-30T09:04:29.829Z,996.99
2023-01-30T09:05:29.560Z,997.14
2023-01-30T09:06:30.543Z,997.09
2023-01-30T09:07:29.528Z,997.12
2023-01-30T09:08:29.532Z,997.16
2023-01-30T09:09:29.513Z,997.12
2023-01-30T09:10:29.492Z,997.10
2023-01-30T09:11:29.504Z,997.08
2023-01-30T09:12:29.528Z,997.14
2023-01-30T09:13:30.480Z,997.10
2023-01-30T09:14:29.464Z,997.14
2023-01-30T09:15:29.455Z,997.17
2023-01-30T09:16:29.480Z,997.03
2023-01-30T09:17:29.421Z,997.10
2023-01-30T09:18:29.484Z,997.07
2023-01-30T09:19:29.408Z,997.01
2023-01-30T09:20:29.417Z,997.05
2023-01-30T09:21:29.417Z,997.09
2023-01-30T09:22:29.364Z,997.04
2023-01-30T09:23:29.390Z,997.06
2023-01-30T09:24:30.373Z,997.00
2023-01-30T09:25:29.338Z,996.97
2023-01-30T09:26:29.411Z,996.90
2023-01-30T09:27:30.309Z,997.04
2023-01-30T09:28:29.312Z,996.88
2023-01-30T09:29:29.333Z,996.86
2023-01-30T09:30:30.521Z,996.82
2023-01-30T09:31:29.352Z,996.75
2023-01-30T09:32:30.261Z,996.85
2023-01-30T09:33:29.237Z,996.76
2023-01-30T09:34:29.254Z,996.92
2023-01-30T09:35:29.221Z,996.92
2023-01-30T09:36:29.252Z,996.93
2023-01-30T09:37:29.223Z,996.89
2023-01-30T09:38:29.209Z,997.02
2023-01-30T09:39:29.196Z,997.06
2023-01-30T09:40:29.188Z,996.89
2023-01-30T09:41:29.162Z,996.92
2023-01-30T09:42:29.237Z,996.90
2023-01-30T09:43:30.145Z,996.90
2023-01-30T09:44:30.140Z,997.05
2023-01-30T09:45:30.148Z,996.89
2023-01-30T09:46:29.162Z,996.74
2023-01-30T09:47:29.128Z,996.90
2023-01-30T09:48:29.077Z,996.87
2023-01-30T09:49:29.099Z,996.95
2023-01-30T09:50:29.077Z,996.99
2023-01-30T09:51:30.091Z,997.01
2023-01-30T09:52:30.099Z,997.08
2023-01-30T09:53:29.038Z,997.13
2023-01-30T09:54:29.041Z,997.05
2023-01-30T09:55:29.030Z,997.02
2023-01-30T09:56:29.043Z,997.09
2023-01-30T09:57:28.992Z,997.03
2023-01-30T09:58:29.004Z,997.01
2023-01-30T09:59:28.996Z,996.90
2023-01-30T10:00:29.974Z,997.02
2023-01-30T10:01:29.938Z,996.96
2023-01-30T10:02:28.931Z,997.04
2023-01-30T10:03:28.997Z,996.96
2023-01-30T10:04:29.014Z,997.02
2023-01-30T10:05:28.890Z,996.91
2023-01-30T10:06:28.907Z,996.94
2023-01-30T10:07:28.968Z,996.90
2023-01-30T10:08:28.915Z,996.96
2023-01-30T10:09:28.882Z,996.90
2023-01-30T10:10:28.870Z,997.03
2023-01-30T10:11:28.831Z,996.96
2023-01-30T10:12:29.899Z,996.94
2023-01-30T10:13:28.839Z,996.84
2023-01-30T10:14:28.822Z,996.93
2023-01-30T10:15:28.812Z,996.93
2023-01-30T10:16:28.803Z,996.67
2023-01-30T10:17:30.853Z,996.82
2023-01-30T10:18:28.781Z,996.91
2023-01-30T10:19:35.596Z,996.91
2023-01-30T10:20:29.756Z,996.95
2023-01-30T10:21:28.762Z,997.00
2023-01-30T10:22:28.756Z,996.99
2023-01-30T10:23:28.726Z,997.04
2023-01-30T10:24:28.721Z,997.10
2023-01-30T10:25:28.753Z,997.06
2023-01-30T10:26:28.731Z,997.01
2023-01-30T10:27:28.693Z,997.15
2023-01-30T10:28:28.643Z,997.04
2023-01-30T10:29:29.651Z,997.04
2023-01-30T10:30:28.756Z,997.07
2023-01-30T10:31:28.703Z,997.07
2023-01-30T10:32:28.605Z,997.09
2023-01-30T10:33:29.624Z,997.10
2023-01-30T10:34:28.607Z,997.12
2023-01-30T10:35:28.611Z,997.10
2023-01-30T10:36:28.585Z,997.13
2023-01-30T10:37:28.578Z,997.12
2023-01-30T10:38:28.541Z,997.12
2023-01-30T10:39:28.555Z,997.10
2023-01-30T10:40:28.548Z,997.09
2023-01-30T10:41:28.547Z,997.11
2023-01-30T10:42:28.553Z,997.06
2023-01-30T10:43:28.531Z,997.11
2023-01-30T10:44:28.500Z,997.07
2023-01-30T10:45:28.516Z,997.07
2023-01-30T10:46:28.517Z,997.16
2023-01-30T10:47:34.723Z,997.02
2023-01-30T10:48:42.532Z,997.17
2023-01-30T10:49:29.439Z,997.13
2023-01-30T10:50:28.429Z,997.15
2023-01-30T10:51:29.477Z,997.14
2023-01-30T10:52:28.399Z,996.86
2023-01-30T10:53:28.423Z,997.05
2023-01-30T10:54:29.399Z,996.98
2023-01-30T10:55:37.336Z,997.03
2023-01-30T10:56:29.409Z,997.03
2023-01-30T10:57:28.366Z,997.02
2023-01-30T10:58:28.378Z,997.06
2023-01-30T10:59:28.345Z,997.13
2023-01-30T11:00:29.332Z,996.89
2023-01-30T11:01:28.321Z,996.99
2023-01-30T11:02:28.394Z,996.93
2023-01-30T11:03:29.314Z,996.86
2023-01-30T11:04:28.293Z,996.88
2023-01-30T11:05:28.267Z,996.88
2023-01-30T11:06:28.274Z,996.90
2023-01-30T11:07:28.229Z,996.86
2023-01-30T11:08:28.227Z,996.88
2023-01-30T11:09:28.227Z,996.99
2023-01-30T11:10:29.229Z,996.91
2023-01-30T11:11:29.218Z,996.95
2023-01-30T11:12:28.215Z,996.91
2023-01-30T11:13:28.178Z,996.82
2023-01-30T11:14:28.188Z,996.83
2023-01-30T11:15:28.172Z,996.80
2023-01-30T11:16:28.199Z,996.79
2023-01-30T11:17:28.193Z,996.79
2023-01-30T11:19:29.123Z,996.61
2023-01-30T11:20:28.117Z,996.63
2023-01-30T11:21:38.465Z,996.65
2023-01-30T11:22:29.110Z,996.63
2023-01-30T11:23:28.056Z,996.71
2023-01-30T11:24:28.070Z,996.65
2023-01-30T11:25:29.058Z,996.67
2023-01-30T11:26:37.814Z,996.61
2023-01-30T11:27:29.067Z,996.60
2023-01-30T11:28:28.040Z,996.82
2023-01-30T11:29:28.017Z,996.72
2023-01-30T11:30:28.009Z,996.71
2023-01-30T11:31:40.298Z,996.62
2023-01-30T11:32:29.078Z,996.79
2023-01-30T11:33:27.989Z,996.63
2023-01-30T11:34:27.950Z,996.70
2023-01-30T11:35:27.958Z,996.67
2023-01-30T11:36:27.942Z,996.70
2023-01-30T11:37:27.941Z,996.69
2023-01-30T11:38:27.922Z,996.63
2023-01-30T11:39:27.919Z,996.68
2023-01-30T11:40:27.920Z,996.59
2023-01-30T11:41:28.875Z,996.60
2023-01-30T11:42:27.883Z,996.51
2023-01-30T11:43:27.849Z,996.44
2023-01-30T11:44:27.870Z,996.45
2023-01-30T11:45:27.888Z,996.40
2023-01-30T11:46:27.806Z,996.43
2023-01-30T11:47:27.811Z,996.37
2023-01-30T11:48:33.910Z,996.40
2023-01-30T11:49:46.640Z,996.46
2023-01-30T11:50:30.404Z,996.42
2023-01-30T11:51:27.760Z,996.42
2023-01-30T11:52:27.753Z,996.41
2023-01-30T11:53:27.745Z,996.39
2023-01-30T11:54:27.752Z,996.37
2023-01-30T11:55:27.721Z,996.41
2023-01-30T11:56:27.751Z,996.40
2023-01-30T11:57:27.717Z,996.40
2023-01-30T11:58:27.684Z,996.38
2023-01-30T11:59:28.675Z,996.31
2023-01-30T12:00:27.693Z,996.32
2023-01-30T12:01:27.673Z,996.33
2023-01-30T12:02:27.713Z,996.32
2023-01-30T12:03:27.662Z,996.40
2023-01-30T12:04:27.631Z,996.33
2023-01-30T12:05:27.623Z,996.26
2023-01-30T12:06:27.591Z,996.33
2023-01-30T12:07:27.663Z,996.36
2023-01-30T12:08:41.058Z,996.26
2023-01-30T12:09:28.587Z,996.28
2023-01-30T12:10:27.576Z,996.31
2023-01-30T12:11:27.571Z,996.27
2023-01-30T12:12:27.574Z,996.24
2023-01-30T12:13:27.538Z,996.23
2023-01-30T12:14:28.518Z,996.13
2023-01-30T12:15:27.500Z,996.18
2023-01-30T12:16:27.575Z,996.09
2023-01-30T12:17:27.523Z,996.09
2023-01-30T12:18:27.464Z,996.06
2023-01-30T12:19:27.476Z,995.99
2023-01-30T12:20:27.475Z,995.98
2023-01-30T12:21:28.479Z,995.97
2023-01-30T12:22:27.461Z,995.97
2023-01-30T12:23:27.450Z,995.87